Time;durP1;ratioP1;P1;durP2;ratioP2;P2;SDS_P1;SDS_P2;PMS_P1;PMS_P2;Temp;Humidity;BMP_temperature;BMP_pressure;BME280_temperature;BME280_humidity;BME280_pressure;Samples;Min_cycle;Max_cycle;Signal;HPM_P1;HPM_P2
2021/10/29 00:06:02;;;;;;;7.65;4.88;;;22.80;56.90;;;;;;31973008;27;20059;-47
2021/10/29 00:21:04;;;;;;;7.13;4.70;;;22.70;57.30;;;;;;31874396;28;20099;-45
2021/10/29 00:36:06;;;;;;;5.95;4.28;;;23.10;56.90;;;;;;31978349;27;20084;-49
2021/10/29 00:51:08;;;;;;;8.57;4.38;;;23.50;56.30;;;;;;32022771;27;20058;-45
2021/10/29 01:06:11;;;;;;;6.45;4.70;;;23.50;56.30;;;;;;32020985;27;20051;-47
2021/10/29 01:21:14;;;;;;;5.30;4.18;;;23.40;56.10;;;;;;32010743;27;20043;-46
2021/10/29 01:36:17;;;;;;;5.32;3.95;;;23.40;56.00;;;;;;31628580;27;9999712;-46
2021/10/29 01:51:19;;;;;;;8.48;4.70;;;23.30;56.10;;;;;;32006356;27;20100;-46
2021/10/29 02:06:21;;;;;;;5.40;4.30;;;23.10;56.50;;;;;;32004737;27;20052;-44
2021/10/29 02:21:23;;;;;;;5.80;4.22;;;23.00;56.50;;;;;;32003020;27;20074;-47
2021/10/29 02:36:25;;;;;;;5.22;4.55;;;22.90;56.80;;;;;;32000119;27;20107;-52
2021/10/29 02:51:31;;;;;;;12.90;4.68;;;22.90;57.10;;;;;;31994191;27;20050;-47
2021/10/29 03:06:33;;;;;;;10.95;4.55;;;22.90;57.40;;;;;;31984984;27;20130;-46
2021/10/29 03:21:35;;;;;;;10.07;4.68;;;22.80;57.60;;;;;;32004189;27;20062;-50
2021/10/29 03:36:38;;;;;;;10.45;4.18;;;23.00;56.60;;;;;;32002049;27;20067;-45
2021/10/29 03:51:44;;;;;;;9.45;4.28;;;23.30;56.60;;;;;;32004122;27;20047;-46
2021/10/29 04:06:46;;;;;;;8.63;4.45;;;23.20;56.40;;;;;;32002514;27;20127;-46
2021/10/29 04:21:49;;;;;;;7.97;5.18;;;23.20;56.40;;;;;;32001159;28;20039;-51
2021/10/29 04:36:53;;;;;;;14.45;6.03;;;23.10;56.90;;;;;;32000599;27;20125;-46
2021/10/29 04:51:55;;;;;;;9.48;5.63;;;23.00;57.30;;;;;;31998533;27;20095;-45
2021/10/29 05:06:57;;;;;;;10.68;5.45;;;22.90;57.20;;;;;;31999349;27;20067;-45
2021/10/29 05:21:59;;;;;;;13.75;6.13;;;23.00;57.00;;;;;;32020749;27;20057;-45
2021/10/29 05:37:01;;;;;;;19.50;9.43;;;23.20;56.60;;;;;;32018808;27;20067;-46
2021/10/29 05:52:05;;;;;;;20.00;8.15;;;23.20;56.70;;;;;;32015676;27;20073;-45
2021/10/29 06:07:07;;;;;;;19.85;9.85;;;23.10;57.00;;;;;;32016437;27;20099;-46
2021/10/29 06:22:18;;;;;;;22.10;10.98;;;23.10;57.20;;;;;;32014366;27;20102;-48
2021/10/29 06:37:21;;;;;;;26.33;11.63;;;23.00;57.20;;;;;;31955837;27;20066;-42
2021/10/29 07:53:33;;;;;;;19.85;9.27;;;23.20;57.30;;;;;;32001231;27;20072;-43
2021/10/29 08:08:35;;;;;;;14.73;9.45;;;23.20;57.40;;;;;;31999500;27;20080;-44
2021/10/29 08:23:38;;;;;;;15.57;9.63;;;23.00;57.40;;;;;;32000075;28;20519;-47
2021/10/29 08:38:40;;;;;;;33.97;16.10;;;22.90;57.70;;;;;;31971426;27;20102;-43
2021/10/29 08:54:02;;;;;;;69.50;46.25;;;22.90;56.90;;;;;;32015424;27;20052;-43
2021/10/29 09:39:42;;;;;;;46.72;32.97;;;23.10;52.40;;;;;;32009978;27;20062;-46
2021/10/29 10:09:57;;;;;;;41.13;28.70;;;23.00;51.90;;;;;;32013247;27;20059;-46
2021/10/29 10:25:05;;;;;;;43.92;25.50;;;22.90;50.60;;;;;;32011864;27;20047;-45
2021/10/29 10:56:06;;;;;;;38.03;21.52;;;23.20;52.40;;;;;;32008710;27;20067;-48
2021/10/29 11:11:15;;;;;;;32.97;20.38;;;23.30;53.20;;;;;;32005068;27;20070;-45
2021/10/29 11:26:23;;;;;;;36.77;19.97;;;23.20;53.80;;;;;;32004917;27;20047;-44
2021/10/29 11:41:31;;;;;;;26.58;17.20;;;23.20;54.10;;;;;;32003476;27;20088;-43
2021/10/29 12:11:39;;;;;;;41.15;26.25;;;23.10;54.90;;;;;;31986968;28;20059;-45
2021/10/29 12:26:41;;;;;;;44.38;32.65;;;23.00;55.10;;;;;;31917340;27;20091;-44
2021/10/29 13:12:36;;;;;;;35.58;27.02;;;23.30;55.20;;;;;;31995265;27;20674;-47
2021/10/29 14:44:22;;;;;;;4.47;3.10;;;22.90;57.50;;;;;;32004908;27;20050;-44
2021/10/29 15:30:10;;;;;;;14.80;7.83;;;22.90;58.30;;;;;;31587737;27;10000274;-45
2021/10/29 15:45:33;;;;;;;21.23;8.02;;;22.90;57.80;;;;;;31990195;27;20291;-50
2021/10/29 16:31:12;;;;;;;13.82;7.68;;;23.40;58.10;;;;;;31989711;28;20047;-45
2021/10/29 16:46:14;;;;;;;16.25;7.70;;;23.40;58.40;;;;;;31988797;27;20054;-49
2021/10/29 17:01:16;;;;;;;19.25;7.20;;;23.40;59.30;;;;;;31987304;27;20099;-48
2021/10/29 17:16:19;;;;;;;20.25;7.88;;;23.30;59.10;;;;;;32006446;27;20039;-48
2021/10/29 17:31:21;;;;;;;17.90;8.40;;;23.20;59.10;;;;;;32005533;27;20090;-50
2021/10/29 17:46:23;;;;;;;17.13;9.50;;;23.20;59.10;;;;;;32011109;27;20051;-51
2021/10/29 18:01:25;;;;;;;15.52;8.25;;;23.20;59.10;;;;;;31986112;27;20047;-48
2021/10/29 18:16:28;;;;;;;20.52;10.20;;;23.10;58.60;;;;;;32001037;27;20047;-48
2021/10/29 18:31:30;;;;;;;20.92;8.63;;;23.00;59.50;;;;;;31889430;27;20054;-48
2021/10/29 18:46:33;;;;;;;19.48;7.57;;;22.90;59.60;;;;;;31945863;27;20039;-44
2021/10/29 19:01:35;;;;;;;18.75;10.15;;;22.90;59.30;;;;;;32013582;27;20047;-43
2021/10/29 19:16:37;;;;;;;17.33;7.53;;;22.90;59.40;;;;;;32010458;27;20093;-48
2021/10/29 19:31:40;;;;;;;13.55;7.38;;;22.80;60.00;;;;;;32003970;27;20043;-53
2021/10/29 19:46:43;;;;;;;13.18;8.15;;;22.80;60.00;;;;;;32006498;27;20043;-50
2021/10/29 20:01:45;;;;;;;13.43;7.13;;;23.20;59.60;;;;;;31975248;27;20055;-49
2021/10/29 20:16:47;;;;;;;14.48;5.85;;;23.40;60.40;;;;;;31877322;28;20047;-52
2021/10/29 20:31:50;;;;;;;10.88;5.05;;;23.40;60.10;;;;;;32004151;28;20043;-50
2021/10/29 20:46:54;;;;;;;8.63;6.20;;;23.30;60.80;;;;;;32017880;27;20047;-49
2021/10/29 21:01:56;;;;;;;8.07;4.80;;;23.20;61.00;;;;;;32028231;27;20055;-52
2021/10/29 21:16:58;;;;;;;8.77;4.82;;;23.20;61.00;;;;;;32027260;27;20043;-52
2021/10/29 21:32:01;;;;;;;8.18;5.28;;;23.10;60.70;;;;;;31918221;27;20048;-43
2021/10/29 21:47:03;;;;;;;9.07;4.78;;;23.10;60.60;;;;;;31894728;28;20063;-42
2021/10/29 22:02:05;;;;;;;6.50;4.68;;;23.00;60.90;;;;;;31855954;27;20048;-51
2021/10/29 22:17:08;;;;;;;5.63;4.30;;;22.90;61.20;;;;;;31762373;28;20134;-47
2021/10/29 22:32:10;;;;;;;6.18;4.40;;;22.90;61.30;;;;;;31828795;28;20051;-45
2021/10/29 22:47:12;;;;;;;9.77;4.22;;;22.80;61.60;;;;;;31806303;28;20596;-47
2021/10/29 23:02:15;;;;;;;7.03;4.18;;;22.80;61.60;;;;;;31922461;27;20051;-47
2021/10/29 23:17:17;;;;;;;5.50;3.75;;;22.70;61.50;;;;;;32014656;27;20072;-41
2021/10/29 23:32:57;;;;;;;7.60;3.80;;;23.10;61.40;;;;;;32012581;27;20099;-43
2021/10/29 23:48:00;;;;;;;6.53;4.40;;;23.40;60.60;;;;;;32010765;27;20077;-42
